sensor_id;sensor_type;location;lat;lon;timestamp;P1;durP1;ratioP1;P2;durP2;ratioP2
3355;SDS011;1691;52.486;13.374;2022-09-03T00:02:57;1.80;;;1.70;;
3355;SDS011;1691;52.486;13.374;2022-09-03T00:08:19;12.17;;;1.43;;
3355;SDS011;1691;52.486;13.374;2022-09-03T00:16:49;3.40;;;1.80;;
3355;SDS011;1691;52.486;13.374;2022-09-03T00:19:24;12.53;;;1.30;;
3355;SDS011;1691;52.486;13.374;2022-09-03T00:21:58;2.13;;;2.03;;
3355;SDS011;1691;52.486;13.374;2022-09-03T00:24:34;2.93;;;1.50;;
3355;SDS011;1691;52.486;13.374;2022-09-03T00:27:05;1.50;;;1.40;;
3355;SDS011;1691;52.486;13.374;2022-09-03T00:29:42;3.23;;;1.50;;
3355;SDS011;1691;52.486;13.374;2022-09-03T00:32:24;1.50;;;1.10;;
3355;SDS011;1691;52.486;13.374;2022-09-03T00:35:10;1.73;;;1.60;;
3355;SDS011;1691;52.486;13.374;2022-09-03T00:37:49;3.93;;;1.77;;
3355;SDS011;1691;52.486;13.374;2022-09-03T00:48:49;2.80;;;1.30;;
3355;SDS011;1691;52.486;13.374;2022-09-03T01:00:59;2.50;;;1.40;;
3355;SDS011;1691;52.486;13.374;2022-09-03T01:03:56;4.40;;;1.50;;
3355;SDS011;1691;52.486;13.374;2022-09-03T01:06:38;1.60;;;1.20;;
3355;SDS011;1691;52.486;13.374;2022-09-03T01:09:29;1.80;;;1.70;;
3355;SDS011;1691;52.486;13.374;2022-09-03T01:15:15;1.60;;;1.50;;
3355;SDS011;1691;52.486;13.374;2022-09-03T01:20:57;8.17;;;1.63;;
3355;SDS011;1691;52.486;13.374;2022-09-03T01:23:42;1.80;;;1.30;;
3355;SDS011;1691;52.486;13.374;2022-09-03T01:26:32;1.40;;;1.30;;
3355;SDS011;1691;52.486;13.374;2022-09-03T01:32:24;3.10;;;1.60;;
3355;SDS011;1691;52.486;13.374;2022-09-03T01:38:03;2.23;;;1.37;;
3355;SDS011;1691;52.486;13.374;2022-09-03T01:45:06;2.70;;;1.57;;
3355;SDS011;1691;52.486;13.374;2022-09-03T01:51:26;1.87;;;1.70;;
3355;SDS011;1691;52.486;13.374;2022-09-03T01:56:56;1.40;;;1.30;;
3355;SDS011;1691;52.486;13.374;2022-09-03T02:02:40;13.33;;;1.87;;
3355;SDS011;1691;52.486;13.374;2022-09-03T02:05:18;1.77;;;1.67;;
3355;SDS011;1691;52.486;13.374;2022-09-03T02:07:55;2.20;;;1.43;;
3355;SDS011;1691;52.486;13.374;2022-09-03T02:13:07;3.00;;;1.10;;
3355;SDS011;1691;52.486;13.374;2022-09-03T02:15:40;3.93;;;1.23;;
3355;SDS011;1691;52.486;13.374;2022-09-03T02:18:31;1.77;;;1.60;;
3355;SDS011;1691;52.486;13.374;2022-09-03T02:21:02;2.70;;;1.70;;
3355;SDS011;1691;52.486;13.374;2022-09-03T02:23:31;1.60;;;1.50;;
3355;SDS011;1691;52.486;13.374;2022-09-03T02:26:01;4.23;;;1.37;;
3355;SDS011;1691;52.486;13.374;2022-09-03T02:28:29;2.60;;;1.40;;
3355;SDS011;1691;52.486;13.374;2022-09-03T02:30:58;5.47;;;1.30;;
3355;SDS011;1691;52.486;13.374;2022-09-03T02:33:25;1.37;;;1.27;;
3355;SDS011;1691;52.486;13.374;2022-09-03T02:35:53;5.00;;;1.60;;
3355;SDS011;1691;52.486;13.374;2022-09-03T02:38:22;2.13;;;1.13;;
3355;SDS011;1691;52.486;13.374;2022-09-03T02:40:52;1.30;;;1.20;;
3355;SDS011;1691;52.486;13.374;2022-09-03T02:43:29;2.40;;;1.43;;
3355;SDS011;1691;52.486;13.374;2022-09-03T02:46:09;8.87;;;1.63;;
3355;SDS011;1691;52.486;13.374;2022-09-03T02:48:55;9.47;;;1.40;;
3355;SDS011;1691;52.486;13.374;2022-09-03T02:51:22;1.57;;;1.47;;
3355;SDS011;1691;52.486;13.374;2022-09-03T02:53:49;3.37;;;1.70;;
3355;SDS011;1691;52.486;13.374;2022-09-03T02:56:16;6.63;;;1.57;;
3355;SDS011;1691;52.486;13.374;2022-09-03T02:58:43;4.00;;;1.37;;
3355;SDS011;1691;52.486;13.374;2022-09-03T03:01:10;3.30;;;1.30;;
3355;SDS011;1691;52.486;13.374;2022-09-03T03:03:49;1.53;;;1.43;;
3355;SDS011;1691;52.486;13.374;2022-09-03T03:06:16;8.80;;;1.93;;
3355;SDS011;1691;52.486;13.374;2022-09-03T03:08:46;1.97;;;1.87;;
3355;SDS011;1691;52.486;13.374;2022-09-03T03:11:16;4.70;;;1.73;;
3355;SDS011;1691;52.486;13.374;2022-09-03T03:13:45;1.70;;;1.40;;
3355;SDS011;1691;52.486;13.374;2022-09-03T03:16:12;3.53;;;1.33;;
3355;SDS011;1691;52.486;13.374;2022-09-03T03:18:42;4.50;;;1.40;;
3355;SDS011;1691;52.486;13.374;2022-09-03T03:21:14;2.03;;;1.73;;
3355;SDS011;1691;52.486;13.374;2022-09-03T03:23:43;1.60;;;1.50;;
3355;SDS011;1691;52.486;13.374;2022-09-03T03:26:11;3.80;;;1.70;;
3355;SDS011;1691;52.486;13.374;2022-09-03T03:28:43;2.03;;;1.60;;
3355;SDS011;1691;52.486;13.374;2022-09-03T03:31:14;3.30;;;1.53;;
3355;SDS011;1691;52.486;13.374;2022-09-03T03:33:49;2.63;;;1.40;;
3355;SDS011;1691;52.486;13.374;2022-09-03T03:36:19;1.63;;;1.53;;
3355;SDS011;1691;52.486;13.374;2022-09-03T03:38:48;1.93;;;1.50;;
3355;SDS011;1691;52.486;13.374;2022-09-03T03:43:44;1.60;;;1.50;;
3355;SDS011;1691;52.486;13.374;2022-09-03T03:46:11;1.93;;;1.83;;
3355;SDS011;1691;52.486;13.374;2022-09-03T03:48:39;2.10;;;2.00;;
3355;SDS011;1691;52.486;13.374;2022-09-03T03:51:08;6.70;;;2.27;;
3355;SDS011;1691;52.486;13.374;2022-09-03T03:53:36;3.77;;;1.70;;
3355;SDS011;1691;52.486;13.374;2022-09-03T03:56:05;2.57;;;1.60;;
3355;SDS011;1691;52.486;13.374;2022-09-03T03:58:36;16.93;;;2.10;;
3355;SDS011;1691;52.486;13.374;2022-09-03T04:01:11;2.17;;;1.97;;
3355;SDS011;1691;52.486;13.374;2022-09-03T04:03:41;3.50;;;1.83;;
3355;SDS011;1691;52.486;13.374;2022-09-03T04:06:10;2.10;;;2.00;;
3355;SDS011;1691;52.486;13.374;2022-09-03T04:08:42;1.80;;;1.70;;
3355;SDS011;1691;52.486;13.374;2022-09-03T04:11:13;2.17;;;2.07;;
3355;SDS011;1691;52.486;13.374;2022-09-03T04:13:43;2.30;;;1.70;;
3355;SDS011;1691;52.486;13.374;2022-09-03T04:16:16;3.57;;;2.23;;
3355;SDS011;1691;52.486;13.374;2022-09-03T04:18:45;7.90;;;1.80;;
3355;SDS011;1691;52.486;13.374;2022-09-03T04:21:18;1.97;;;1.87;;
3355;SDS011;1691;52.486;13.374;2022-09-03T04:23:53;1.73;;;1.63;;
3355;SDS011;1691;52.486;13.374;2022-09-03T04:26:22;2.17;;;2.07;;
3355;SDS011;1691;52.486;13.374;2022-09-03T04:28:59;2.10;;;2.00;;
3355;SDS011;1691;52.486;13.374;2022-09-03T04:31:30;14.03;;;2.23;;
3355;SDS011;1691;52.486;13.374;2022-09-03T04:33:58;4.30;;;1.93;;
3355;SDS011;1691;52.486;13.374;2022-09-03T04:36:26;2.43;;;2.20;;
3355;SDS011;1691;52.486;13.374;2022-09-03T04:38:57;1.70;;;1.60;;
3355;SDS011;1691;52.486;13.374;2022-09-03T04:41:26;5.17;;;1.93;;
3355;SDS011;1691;52.486;13.374;2022-09-03T04:43:56;2.53;;;1.80;;
3355;SDS011;1691;52.486;13.374;2022-09-03T04:46:25;7.10;;;2.10;;
3355;SDS011;1691;52.486;13.374;2022-09-03T04:48:59;1.77;;;1.67;;
3355;SDS011;1691;52.486;13.374;2022-09-03T04:51:27;2.10;;;1.97;;
3355;SDS011;1691;52.486;13.374;2022-09-03T04:53:58;7.87;;;2.40;;
3355;SDS011;1691;52.486;13.374;2022-09-03T04:56:28;3.50;;;2.00;;
3355;SDS011;1691;52.486;13.374;2022-09-03T04:58:58;2.90;;;1.93;;
3355;SDS011;1691;52.486;13.374;2022-09-03T05:01:32;2.10;;;2.00;;
3355;SDS011;1691;52.486;13.374;2022-09-03T05:04:01;2.43;;;2.33;;
3355;SDS011;1691;52.486;13.374;2022-09-03T05:06:30;2.10;;;2.00;;
3355;SDS011;1691;52.486;13.374;2022-09-03T05:08:58;8.30;;;2.47;;
3355;SDS011;1691;52.486;13.374;2022-09-03T05:11:26;2.33;;;2.03;;
3355;SDS011;1691;52.486;13.374;2022-09-03T05:13:56;3.00;;;1.80;;
3355;SDS011;1691;52.486;13.374;2022-09-03T05:16:24;4.70;;;1.87;;
3355;SDS011;1691;52.486;13.374;2022-09-03T05:18:54;14.07;;;2.20;;
3355;SDS011;1691;52.486;13.374;2022-09-03T05:21:27;2.40;;;2.20;;
3355;SDS011;1691;52.486;13.374;2022-09-03T05:23:54;4.40;;;1.90;;
3355;SDS011;1691;52.486;13.374;2022-09-03T05:26:25;3.63;;;1.40;;
3355;SDS011;1691;52.486;13.374;2022-09-03T05:28:59;3.53;;;2.53;;
3355;SDS011;1691;52.486;13.374;2022-09-03T05:31:28;3.53;;;1.40;;
3355;SDS011;1691;52.486;13.374;2022-09-03T05:33:58;2.00;;;1.90;;
3355;SDS011;1691;52.486;13.374;2022-09-03T05:36:29;8.93;;;2.40;;
3355;SDS011;1691;52.486;13.374;2022-09-03T05:39:00;1.43;;;1.33;;
3355;SDS011;1691;52.486;13.374;2022-09-03T05:41:28;4.90;;;1.50;;
3355;SDS011;1691;52.486;13.374;2022-09-03T05:43:57;7.57;;;2.10;;
3355;SDS011;1691;52.486;13.374;2022-09-03T05:46:26;2.60;;;1.73;;
3355;SDS011;1691;52.486;13.374;2022-09-03T05:48:58;3.00;;;2.47;;
3355;SDS011;1691;52.486;13.374;2022-09-03T05:51:31;2.00;;;1.90;;
3355;SDS011;1691;52.486;13.374;2022-09-03T05:53:59;5.80;;;1.70;;
3355;SDS011;1691;52.486;13.374;2022-09-03T05:56:28;1.77;;;1.67;;
3355;SDS011;1691;52.486;13.374;2022-09-03T05:58:58;3.57;;;1.50;;
3355;SDS011;1691;52.486;13.374;2022-09-03T06:01:31;3.10;;;1.90;;
3355;SDS011;1691;52.486;13.374;2022-09-03T06:06:31;2.30;;;2.20;;
3355;SDS011;1691;52.486;13.374;2022-09-03T06:09:05;2.13;;;1.70;;
3355;SDS011;1691;52.486;13.374;2022-09-03T06:11:44;3.23;;;2.70;;
3355;SDS011;1691;52.486;13.374;2022-09-03T06:14:15;1.70;;;1.60;;
3355;SDS011;1691;52.486;13.374;2022-09-03T06:16:43;4.73;;;2.17;;
3355;SDS011;1691;52.486;13.374;2022-09-03T06:19:14;2.63;;;2.40;;
3355;SDS011;1691;52.486;13.374;2022-09-03T06:21:42;2.73;;;2.20;;
3355;SDS011;1691;52.486;13.374;2022-09-03T06:24:12;2.63;;;2.13;;
3355;SDS011;1691;52.486;13.374;2022-09-03T06:26:45;3.03;;;2.37;;
3355;SDS011;1691;52.486;13.374;2022-09-03T06:29:12;2.87;;;1.80;;
3355;SDS011;1691;52.486;13.374;2022-09-03T06:31:39;5.47;;;2.17;;
3355;SDS011;1691;52.486;13.374;2022-09-03T06:34:07;5.47;;;2.17;;
3355;SDS011;1691;52.486;13.374;2022-09-03T06:36:34;2.47;;;1.97;;
3355;SDS011;1691;52.486;13.374;2022-09-03T06:39:01;1.97;;;1.87;;
3355;SDS011;1691;52.486;13.374;2022-09-03T06:41:29;2.90;;;2.07;;
3355;SDS011;1691;52.486;13.374;2022-09-03T06:44:02;2.93;;;2.27;;
3355;SDS011;1691;52.486;13.374;2022-09-03T06:46:34;2.33;;;2.13;;
3355;SDS011;1691;52.486;13.374;2022-09-03T06:49:10;4.80;;;2.30;;
3355;SDS011;1691;52.486;13.374;2022-09-03T06:51:37;6.97;;;2.17;;
3355;SDS011;1691;52.486;13.374;2022-09-03T06:54:06;5.90;;;2.10;;
3355;SDS011;1691;52.486;13.374;2022-09-03T06:56:35;4.20;;;2.30;;
3355;SDS011;1691;52.486;13.374;2022-09-03T06:59:07;14.10;;;2.30;;
3355;SDS011;1691;52.486;13.374;2022-09-03T07:01:40;2.53;;;2.33;;
3355;SDS011;1691;52.486;13.374;2022-09-03T07:04:12;10.27;;;2.33;;
3355;SDS011;1691;52.486;13.374;2022-09-03T07:06:46;4.83;;;1.90;;
3355;SDS011;1691;52.486;13.374;2022-09-03T07:09:13;12.60;;;2.63;;
3355;SDS011;1691;52.486;13.374;2022-09-03T07:11:43;2.17;;;2.07;;
3355;SDS011;1691;52.486;13.374;2022-09-03T07:14:17;4.40;;;2.13;;
3355;SDS011;1691;52.486;13.374;2022-09-03T07:16:49;4.67;;;1.87;;
3355;SDS011;1691;52.486;13.374;2022-09-03T07:19:16;3.40;;;2.10;;
3355;SDS011;1691;52.486;13.374;2022-09-03T07:21:44;3.53;;;2.20;;
3355;SDS011;1691;52.486;13.374;2022-09-03T07:24:15;6.13;;;1.67;;
3355;SDS011;1691;52.486;13.374;2022-09-03T07:26:44;14.57;;;2.33;;
3355;SDS011;1691;52.486;13.374;2022-09-03T07:29:14;5.43;;;2.30;;
3355;SDS011;1691;52.486;13.374;2022-09-03T07:31:46;2.83;;;2.60;;
3355;SDS011;1691;52.486;13.374;2022-09-03T07:34:17;4.50;;;2.27;;
3355;SDS011;1691;52.486;13.374;2022-09-03T07:36:45;2.33;;;2.20;;
3355;SDS011;1691;52.486;13.374;2022-09-03T07:39:16;2.10;;;2.00;;
3355;SDS011;1691;52.486;13.374;2022-09-03T07:41:44;2.30;;;2.03;;
3355;SDS011;1691;52.486;13.374;2022-09-03T07:44:12;3.73;;;2.03;;
3355;SDS011;1691;52.486;13.374;2022-09-03T07:46:41;5.27;;;2.40;;
3355;SDS011;1691;52.486;13.374;2022-09-03T07:49:10;5.40;;;2.40;;
3355;SDS011;1691;52.486;13.374;2022-09-03T07:51:38;2.80;;;1.90;;
3355;SDS011;1691;52.486;13.374;2022-09-03T07:54:06;6.73;;;2.07;;
3355;SDS011;1691;52.486;13.374;2022-09-03T07:56:38;5.10;;;1.90;;
3355;SDS011;1691;52.486;13.374;2022-09-03T07:59:06;2.30;;;2.03;;
3355;SDS011;1691;52.486;13.374;2022-09-03T08:01:34;2.83;;;1.80;;
3355;SDS011;1691;52.486;13.374;2022-09-03T08:04:06;8.13;;;1.87;;
3355;SDS011;1691;52.486;13.374;2022-09-03T08:06:35;4.43;;;2.03;;
3355;SDS011;1691;52.486;13.374;2022-09-03T08:09:04;2.17;;;1.90;;
3355;SDS011;1691;52.486;13.374;2022-09-03T08:11:35;4.17;;;2.03;;
3355;SDS011;1691;52.486;13.374;2022-09-03T08:14:06;3.93;;;1.90;;
3355;SDS011;1691;52.486;13.374;2022-09-03T08:16:40;4.40;;;1.77;;
3355;SDS011;1691;52.486;13.374;2022-09-03T08:19:11;2.20;;;1.50;;
3355;SDS011;1691;52.486;13.374;2022-09-03T08:21:38;2.37;;;2.17;;
3355;SDS011;1691;52.486;13.374;2022-09-03T08:24:10;3.10;;;1.90;;
3355;SDS011;1691;52.486;13.374;2022-09-03T08:26:39;3.20;;;1.73;;
3355;SDS011;1691;52.486;13.374;2022-09-03T08:29:15;8.47;;;1.73;;
3355;SDS011;1691;52.486;13.374;2022-09-03T08:31:43;2.17;;;1.70;;
3355;SDS011;1691;52.486;13.374;2022-09-03T08:34:10;3.23;;;1.90;;
3355;SDS011;1691;52.486;13.374;2022-09-03T08:36:40;4.93;;;1.80;;
3355;SDS011;1691;52.486;13.374;2022-09-03T08:39:07;1.60;;;1.30;;
3355;SDS011;1691;52.486;13.374;2022-09-03T08:44:28;1.93;;;1.67;;
3355;SDS011;1691;52.486;13.374;2022-09-03T08:56:02;3.07;;;1.47;;
3355;SDS011;1691;52.486;13.374;2022-09-03T08:58:34;3.13;;;1.27;;
3355;SDS011;1691;52.486;13.374;2022-09-03T09:03:47;1.73;;;1.17;;
3355;SDS011;1691;52.486;13.374;2022-09-03T09:18:56;4.60;;;1.50;;
3355;SDS011;1691;52.486;13.374;2022-09-03T09:22:00;2.20;;;1.37;;
3355;SDS011;1691;52.486;13.374;2022-09-03T09:24:38;1.23;;;1.13;;
3355;SDS011;1691;52.486;13.374;2022-09-03T09:27:12;1.27;;;1.13;;
3355;SDS011;1691;52.486;13.374;2022-09-03T09:29:42;5.47;;;1.97;;
3355;SDS011;1691;52.486;13.374;2022-09-03T09:32:17;16.23;;;1.30;;
3355;SDS011;1691;52.486;13.374;2022-09-03T09:34:47;5.10;;;1.43;;
3355;SDS011;1691;52.486;13.374;2022-09-03T09:37:17;7.63;;;1.40;;
3355;SDS011;1691;52.486;13.374;2022-09-03T09:39:58;3.90;;;1.10;;
3355;SDS011;1691;52.486;13.374;2022-09-03T09:42:27;2.30;;;1.60;;
3355;SDS011;1691;52.486;13.374;2022-09-03T09:44:56;4.23;;;1.33;;
3355;SDS011;1691;52.486;13.374;2022-09-03T09:47:37;3.13;;;1.33;;
3355;SDS011;1691;52.486;13.374;2022-09-03T09:50:14;3.30;;;1.20;;
3355;SDS011;1691;52.486;13.374;2022-09-03T09:53:01;14.27;;;1.33;;
3355;SDS011;1691;52.486;13.374;2022-09-03T09:55:34;1.90;;;1.73;;
3355;SDS011;1691;52.486;13.374;2022-09-03T09:58:04;5.00;;;1.37;;
3355;SDS011;1691;52.486;13.374;2022-09-03T10:00:39;6.27;;;1.40;;
3355;SDS011;1691;52.486;13.374;2022-09-03T10:03:09;4.40;;;1.40;;
3355;SDS011;1691;52.486;13.374;2022-09-03T10:05:39;3.47;;;1.07;;
3355;SDS011;1691;52.486;13.374;2022-09-03T10:08:17;1.20;;;1.10;;
3355;SDS011;1691;52.486;13.374;2022-09-03T10:10:48;2.50;;;1.13;;
3355;SDS011;1691;52.486;13.374;2022-09-03T10:13:18;1.83;;;1.40;;
3355;SDS011;1691;52.486;13.374;2022-09-03T10:16:02;4.13;;;1.40;;
3355;SDS011;1691;52.486;13.374;2022-09-03T10:24:46;4.40;;;1.53;;
3355;SDS011;1691;52.486;13.374;2022-09-03T10:27:27;2.53;;;1.40;;
3355;SDS011;1691;52.486;13.374;2022-09-03T10:29:57;13.80;;;1.60;;
3355;SDS011;1691;52.486;13.374;2022-09-03T10:35:29;12.63;;;1.13;;
3355;SDS011;1691;52.486;13.374;2022-09-03T10:46:32;2.17;;;1.20;;
3355;SDS011;1691;52.486;13.374;2022-09-03T10:52:19;1.13;;;1.03;;
3355;SDS011;1691;52.486;13.374;2022-09-03T10:55:02;24.03;;;3.10;;
3355;SDS011;1691;52.486;13.374;2022-09-03T10:57:56;4.10;;;1.40;;
3355;SDS011;1691;52.486;13.374;2022-09-03T11:00:30;10.30;;;1.40;;
3355;SDS011;1691;52.486;13.374;2022-09-03T11:06:01;10.07;;;2.43;;
3355;SDS011;1691;52.486;13.374;2022-09-03T11:09:34;2.73;;;1.03;;
3355;SDS011;1691;52.486;13.374;2022-09-03T11:12:08;6.90;;;2.00;;
3355;SDS011;1691;52.486;13.374;2022-09-03T11:14:59;4.67;;;1.23;;
3355;SDS011;1691;52.486;13.374;2022-09-03T11:17:36;4.43;;;1.70;;
3355;SDS011;1691;52.486;13.374;2022-09-03T11:20:30;7.63;;;1.90;;
3355;SDS011;1691;52.486;13.374;2022-09-03T11:23:02;5.73;;;1.53;;
3355;SDS011;1691;52.486;13.374;2022-09-03T11:25:38;4.97;;;2.00;;
3355;SDS011;1691;52.486;13.374;2022-09-03T11:28:25;13.03;;;3.30;;
3355;SDS011;1691;52.486;13.374;2022-09-03T11:31:20;1.83;;;1.07;;
3355;SDS011;1691;52.486;13.374;2022-09-03T11:34:03;13.73;;;2.03;;
3355;SDS011;1691;52.486;13.374;2022-09-03T11:36:34;10.70;;;2.43;;
3355;SDS011;1691;52.486;13.374;2022-09-03T11:39:19;8.80;;;1.97;;
3355;SDS011;1691;52.486;13.374;2022-09-03T11:44:37;8.53;;;1.60;;
3355;SDS011;1691;52.486;13.374;2022-09-03T11:47:21;4.53;;;1.30;;
3355;SDS011;1691;52.486;13.374;2022-09-03T11:49:51;17.93;;;2.07;;
3355;SDS011;1691;52.486;13.374;2022-09-03T11:52:32;4.70;;;2.17;;
3355;SDS011;1691;52.486;13.374;2022-09-03T11:55:06;6.57;;;1.70;;
3355;SDS011;1691;52.486;13.374;2022-09-03T11:57:38;15.13;;;2.00;;
3355;SDS011;1691;52.486;13.374;2022-09-03T12:00:13;6.87;;;2.00;;
3355;SDS011;1691;52.486;13.374;2022-09-03T12:02:47;3.10;;;2.07;;
3355;SDS011;1691;52.486;13.374;2022-09-03T12:05:46;2.93;;;1.03;;
3355;SDS011;1691;52.486;13.374;2022-09-03T12:11:52;6.13;;;1.60;;
3355;SDS011;1691;52.486;13.374;2022-09-03T12:14:33;2.80;;;1.43;;
3355;SDS011;1691;52.486;13.374;2022-09-03T12:20:46;3.57;;;1.50;;
3355;SDS011;1691;52.486;13.374;2022-09-03T12:26:21;1.57;;;1.23;;
3355;SDS011;1691;52.486;13.374;2022-09-03T12:28:53;1.43;;;1.33;;
3355;SDS011;1691;52.486;13.374;2022-09-03T12:31:29;2.67;;;1.23;;
3355;SDS011;1691;52.486;13.374;2022-09-03T12:34:10;1.63;;;1.17;;
3355;SDS011;1691;52.486;13.374;2022-09-03T12:36:42;1.30;;;1.20;;
3355;SDS011;1691;52.486;13.374;2022-09-03T12:39:21;1.37;;;1.27;;
3355;SDS011;1691;52.486;13.374;2022-09-03T12:42:11;3.30;;;1.20;;
3355;SDS011;1691;52.486;13.374;2022-09-03T12:44:50;12.57;;;1.87;;
3355;SDS011;1691;52.486;13.374;2022-09-03T12:47:18;3.07;;;1.20;;
3355;SDS011;1691;52.486;13.374;2022-09-03T12:50:05;2.67;;;1.20;;
3355;SDS011;1691;52.486;13.374;2022-09-03T12:52:52;5.17;;;1.37;;
3355;SDS011;1691;52.486;13.374;2022-09-03T12:58:10;1.10;;;0.93;;
3355;SDS011;1691;52.486;13.374;2022-09-03T13:01:04;1.57;;;1.10;;
3355;SDS011;1691;52.486;13.374;2022-09-03T13:06:09;1.33;;;1.23;;
3355;SDS011;1691;52.486;13.374;2022-09-03T13:08:45;1.93;;;1.83;;
3355;SDS011;1691;52.486;13.374;2022-09-03T13:11:17;1.83;;;1.27;;
3355;SDS011;1691;52.486;13.374;2022-09-03T13:25:15;3.57;;;0.80;;
3355;SDS011;1691;52.486;13.374;2022-09-03T13:33:49;2.80;;;1.70;;
3355;SDS011;1691;52.486;13.374;2022-09-03T13:43:02;1.50;;;1.40;;
3355;SDS011;1691;52.486;13.374;2022-09-03T13:45:53;2.10;;;1.70;;
3355;SDS011;1691;52.486;13.374;2022-09-03T13:48:55;4.53;;;1.60;;
3355;SDS011;1691;52.486;13.374;2022-09-03T13:52:02;4.40;;;1.60;;
3355;SDS011;1691;52.486;13.374;2022-09-03T13:54:38;1.50;;;1.40;;
3355;SDS011;1691;52.486;13.374;2022-09-03T14:00:03;2.73;;;1.60;;
3355;SDS011;1691;52.486;13.374;2022-09-03T14:02:42;4.53;;;2.03;;
3355;SDS011;1691;52.486;13.374;2022-09-03T14:05:59;1.63;;;0.93;;
3355;SDS011;1691;52.486;13.374;2022-09-03T14:14:05;2.23;;;1.80;;
3355;SDS011;1691;52.486;13.374;2022-09-03T14:22:24;1.57;;;1.47;;
3355;SDS011;1691;52.486;13.374;2022-09-03T14:25:14;1.80;;;1.63;;
3355;SDS011;1691;52.486;13.374;2022-09-03T14:27:45;1.57;;;1.47;;
3355;SDS011;1691;52.486;13.374;2022-09-03T14:35:30;3.60;;;2.30;;
3355;SDS011;1691;52.486;13.374;2022-09-03T14:46:59;1.60;;;1.50;;
3355;SDS011;1691;52.486;13.374;2022-09-03T14:49:42;2.30;;;2.00;;
3355;SDS011;1691;52.486;13.374;2022-09-03T14:58:30;9.30;;;1.63;;
3355;SDS011;1691;52.486;13.374;2022-09-03T15:01:28;7.53;;;1.80;;
3355;SDS011;1691;52.486;13.374;2022-09-03T15:13:15;28.47;;;2.57;;
3355;SDS011;1691;52.486;13.374;2022-09-03T15:18:58;1.67;;;1.57;;
3355;SDS011;1691;52.486;13.374;2022-09-03T15:22:06;1.40;;;1.30;;
3355;SDS011;1691;52.486;13.374;2022-09-03T15:30:24;4.00;;;1.50;;
3355;SDS011;1691;52.486;13.374;2022-09-03T15:36:08;1.73;;;1.53;;
3355;SDS011;1691;52.486;13.374;2022-09-03T15:38:47;1.93;;;1.73;;
3355;SDS011;1691;52.486;13.374;2022-09-03T15:41:33;1.80;;;1.47;;
3355;SDS011;1691;52.486;13.374;2022-09-03T15:44:01;1.50;;;1.40;;
3355;SDS011;1691;52.486;13.374;2022-09-03T15:46:48;1.50;;;1.40;;
3355;SDS011;1691;52.486;13.374;2022-09-03T15:55:10;2.40;;;2.20;;
3355;SDS011;1691;52.486;13.374;2022-09-03T15:58:02;3.53;;;1.90;;
3355;SDS011;1691;52.486;13.374;2022-09-03T16:03:33;3.70;;;1.93;;
3355;SDS011;1691;52.486;13.374;2022-09-03T16:06:22;2.33;;;2.10;;
3355;SDS011;1691;52.486;13.374;2022-09-03T16:09:50;8.30;;;2.30;;
3355;SDS011;1691;52.486;13.374;2022-09-03T16:18:39;2.23;;;1.93;;
3355;SDS011;1691;52.486;13.374;2022-09-03T16:24:37;1.50;;;1.40;;
3355;SDS011;1691;52.486;13.374;2022-09-03T16:27:23;1.50;;;1.40;;
3355;SDS011;1691;52.486;13.374;2022-09-03T16:59:39;4.87;;;2.40;;
3355;SDS011;1691;52.486;13.374;2022-09-03T17:14:15;2.87;;;2.67;;
3355;SDS011;1691;52.486;13.374;2022-09-03T17:20:05;9.80;;;2.50;;
3355;SDS011;1691;52.486;13.374;2022-09-03T17:40:17;3.63;;;3.37;;
3355;SDS011;1691;52.486;13.374;2022-09-03T17:46:34;4.07;;;3.57;;
3355;SDS011;1691;52.486;13.374;2022-09-03T17:49:28;5.13;;;4.70;;
3355;SDS011;1691;52.486;13.374;2022-09-03T18:00:56;4.10;;;3.80;;
3355;SDS011;1691;52.486;13.374;2022-09-03T18:03:44;9.00;;;4.80;;
3355;SDS011;1691;52.486;13.374;2022-09-03T18:11:39;9.93;;;4.60;;
3355;SDS011;1691;52.486;13.374;2022-09-03T18:14:21;5.43;;;4.93;;
3355;SDS011;1691;52.486;13.374;2022-09-03T18:19:44;14.50;;;5.60;;
3355;SDS011;1691;52.486;13.374;2022-09-03T18:22:43;4.67;;;4.37;;
3355;SDS011;1691;52.486;13.374;2022-09-03T18:26:04;7.47;;;4.80;;
3355;SDS011;1691;52.486;13.374;2022-09-03T18:28:58;5.70;;;4.67;;
3355;SDS011;1691;52.486;13.374;2022-09-03T18:31:50;4.80;;;4.47;;
3355;SDS011;1691;52.486;13.374;2022-09-03T18:34:36;6.03;;;3.77;;
3355;SDS011;1691;52.486;13.374;2022-09-03T18:37:23;5.67;;;4.97;;
3355;SDS011;1691;52.486;13.374;2022-09-03T18:40:18;4.40;;;4.20;;
3355;SDS011;1691;52.486;13.374;2022-09-03T18:57:19;2.90;;;2.80;;
3355;SDS011;1691;52.486;13.374;2022-09-03T19:00:26;3.00;;;2.73;;
3355;SDS011;1691;52.486;13.374;2022-09-03T19:06:31;6.20;;;3.03;;
3355;SDS011;1691;52.486;13.374;2022-09-03T19:16:04;3.53;;;3.20;;
3355;SDS011;1691;52.486;13.374;2022-09-03T19:22:35;8.70;;;3.37;;
3355;SDS011;1691;52.486;13.374;2022-09-03T19:25:24;4.23;;;3.57;;
3355;SDS011;1691;52.486;13.374;2022-09-03T19:28:19;6.30;;;3.60;;
3355;SDS011;1691;52.486;13.374;2022-09-03T19:31:18;5.17;;;3.47;;
3355;SDS011;1691;52.486;13.374;2022-09-03T19:34:31;3.47;;;3.27;;
3355;SDS011;1691;52.486;13.374;2022-09-03T19:37:47;8.03;;;4.43;;
3355;SDS011;1691;52.486;13.374;2022-09-03T19:41:26;7.53;;;3.90;;
3355;SDS011;1691;52.486;13.374;2022-09-03T19:51:34;4.17;;;3.70;;
3355;SDS011;1691;52.486;13.374;2022-09-03T19:54:29;9.13;;;4.63;;
3355;SDS011;1691;52.486;13.374;2022-09-03T19:57:16;7.73;;;4.93;;
3355;SDS011;1691;52.486;13.374;2022-09-03T20:00:04;6.20;;;3.60;;
3355;SDS011;1691;52.486;13.374;2022-09-03T20:02:58;4.90;;;4.50;;
3355;SDS011;1691;52.486;13.374;2022-09-03T20:05:45;4.67;;;4.30;;
3355;SDS011;1691;52.486;13.374;2022-09-03T20:08:36;8.60;;;4.00;;
3355;SDS011;1691;52.486;13.374;2022-09-03T20:11:22;4.63;;;4.33;;
3355;SDS011;1691;52.486;13.374;2022-09-03T20:13:54;6.20;;;3.70;;
3355;SDS011;1691;52.486;13.374;2022-09-03T20:16:49;9.23;;;4.40;;
3355;SDS011;1691;52.486;13.374;2022-09-03T20:19:58;5.90;;;4.17;;
3355;SDS011;1691;52.486;13.374;2022-09-03T20:22:40;4.20;;;3.80;;
3355;SDS011;1691;52.486;13.374;2022-09-03T20:28:00;7.33;;;3.80;;
3355;SDS011;1691;52.486;13.374;2022-09-03T20:30:55;3.00;;;2.80;;
3355;SDS011;1691;52.486;13.374;2022-09-03T20:45:34;3.03;;;2.80;;
3355;SDS011;1691;52.486;13.374;2022-09-03T20:51:41;5.00;;;2.80;;
3355;SDS011;1691;52.486;13.374;2022-09-03T20:54:26;3.23;;;3.00;;
3355;SDS011;1691;52.486;13.374;2022-09-03T20:57:22;14.60;;;3.17;;
3355;SDS011;1691;52.486;13.374;2022-09-03T21:00:14;3.50;;;3.30;;
3355;SDS011;1691;52.486;13.374;2022-09-03T21:11:39;5.83;;;3.07;;
3355;SDS011;1691;52.486;13.374;2022-09-03T21:17:10;7.37;;;2.63;;
3355;SDS011;1691;52.486;13.374;2022-09-03T21:23:12;13.40;;;3.83;;
3355;SDS011;1691;52.486;13.374;2022-09-03T21:25:52;6.30;;;3.10;;
3355;SDS011;1691;52.486;13.374;2022-09-03T21:28:44;3.10;;;2.77;;
3355;SDS011;1691;52.486;13.374;2022-09-03T21:34:51;2.93;;;2.77;;
3355;SDS011;1691;52.486;13.374;2022-09-03T21:37:36;5.80;;;2.53;;
3355;SDS011;1691;52.486;13.374;2022-09-03T21:40:08;3.43;;;2.97;;
3355;SDS011;1691;52.486;13.374;2022-09-03T21:42:54;3.27;;;2.97;;
3355;SDS011;1691;52.486;13.374;2022-09-03T21:46:12;3.40;;;3.20;;
3355;SDS011;1691;52.486;13.374;2022-09-03T21:48:51;6.13;;;2.87;;
3355;SDS011;1691;52.486;13.374;2022-09-03T21:56:49;2.87;;;2.50;;
3355;SDS011;1691;52.486;13.374;2022-09-03T22:00:48;17.00;;;3.30;;
3355;SDS011;1691;52.486;13.374;2022-09-03T22:02:58;2.83;;;2.60;;
3355;SDS011;1691;52.486;13.374;2022-09-03T22:05:31;2.87;;;2.60;;
3355;SDS011;1691;52.486;13.374;2022-09-03T22:11:31;3.07;;;2.87;;
3355;SDS011;1691;52.486;13.374;2022-09-03T22:14:15;4.23;;;2.73;;
3355;SDS011;1691;52.486;13.374;2022-09-03T22:19:42;3.00;;;2.80;;
3355;SDS011;1691;52.486;13.374;2022-09-03T22:25:02;4.50;;;2.50;;
3355;SDS011;1691;52.486;13.374;2022-09-03T22:28:02;5.47;;;2.80;;
3355;SDS011;1691;52.486;13.374;2022-09-03T22:30:44;14.43;;;3.10;;
3355;SDS011;1691;52.486;13.374;2022-09-03T22:33:48;2.90;;;2.73;;
3355;SDS011;1691;52.486;13.374;2022-09-03T22:36:47;2.23;;;2.03;;
3355;SDS011;1691;52.486;13.374;2022-09-03T22:45:10;3.43;;;2.27;;
3355;SDS011;1691;52.486;13.374;2022-09-03T22:51:17;2.50;;;2.30;;